Time;durP1;ratioP1;P1;durP2;ratioP2;P2;SDS_P1;SDS_P2;PMS_P1;PMS_P2;Temp;Humidity;BMP_temperature;BMP_pressure;BME280_temperature;BME280_humidity;BME280_pressure;Samples;Min_cycle;Max_cycle;Signal;HPM_P1;HPM_P2
2024/03/02 00:00:20;;;;;;;39.50;27.77;;;;;;;;;;5055976;28;20444;-72
2024/03/02 00:02:49;;;;;;;38.80;27.30;;;;;;;;;;5055794;28;20452;-72
2024/03/02 00:05:16;;;;;;;39.70;27.87;;;;;;;;;;5055826;28;20498;-72
2024/03/02 00:07:45;;;;;;;43.93;29.60;;;;;;;;;;5055624;28;21011;-72
2024/03/02 00:10:12;;;;;;;36.47;26.27;;;;;;;;;;5055812;28;20539;-72
2024/03/02 00:12:40;;;;;;;39.30;28.00;;;;;;;;;;5055808;28;20619;-72
2024/03/02 00:15:08;;;;;;;33.90;26.70;;;;;;;;;;5055675;28;20444;-72
2024/03/02 00:17:35;;;;;;;37.70;28.60;;;;;;;;;;5055497;28;20930;-72
2024/03/02 00:20:05;;;;;;;36.90;29.20;;;;;;;;;;5055372;28;20489;-72
2024/03/02 00:22:32;;;;;;;37.17;27.20;;;;;;;;;;5055889;28;20447;-72
2024/03/02 00:25:00;;;;;;;38.00;28.73;;;;;;;;;;5055374;28;21006;-72
2024/03/02 00:27:27;;;;;;;33.30;26.97;;;;;;;;;;5055451;28;20534;-72
2024/03/02 00:29:55;;;;;;;36.90;27.50;;;;;;;;;;5055365;28;20874;-72
2024/03/02 00:32:22;;;;;;;35.50;28.33;;;;;;;;;;5055228;28;20440;-72
2024/03/02 00:34:49;;;;;;;37.07;27.10;;;;;;;;;;5055155;28;20865;-72
2024/03/02 00:37:16;;;;;;;33.47;26.50;;;;;;;;;;5055243;28;20483;-72
2024/03/02 00:39:43;;;;;;;35.13;27.30;;;;;;;;;;5055008;28;20464;-72
2024/03/02 00:42:13;;;;;;;37.07;26.03;;;;;;;;;;5055022;28;20451;-72
2024/03/02 00:44:40;;;;;;;34.87;27.80;;;;;;;;;;5055022;28;20535;-72
2024/03/02 00:47:07;;;;;;;38.67;29.00;;;;;;;;;;5054878;28;20440;-72
2024/03/02 00:49:33;;;;;;;38.07;29.33;;;;;;;;;;5055192;28;21019;-72
2024/03/02 00:52:00;;;;;;;38.20;27.73;;;;;;;;;;5054997;28;20455;-72
2024/03/02 00:54:28;;;;;;;37.60;27.90;;;;;;;;;;5054958;28;20531;-72
2024/03/02 00:56:56;;;;;;;35.67;28.10;;;;;;;;;;5054778;28;20512;-72
2024/03/02 00:59:24;;;;;;;37.57;27.50;;;;;;;;;;5054703;28;20502;-72
2024/03/02 01:01:51;;;;;;;39.57;27.67;;;;;;;;;;5054546;28;20531;-72
2024/03/02 01:04:18;;;;;;;37.80;28.43;;;;;;;;;;5054451;28;20444;-72
2024/03/02 01:06:45;;;;;;;39.70;27.90;;;;;;;;;;5054974;28;20871;-72
2024/03/02 01:09:13;;;;;;;35.77;26.17;;;;;;;;;;5054597;28;20484;-72
2024/03/02 01:11:40;;;;;;;41.27;29.13;;;;;;;;;;5054545;28;20444;-72
2024/03/02 01:14:07;;;;;;;34.20;27.10;;;;;;;;;;5054419;28;20455;-72
2024/03/02 01:16:35;;;;;;;40.90;28.50;;;;;;;;;;5054287;28;20539;-72
2024/03/02 01:19:02;;;;;;;37.73;27.43;;;;;;;;;;5054487;28;20455;-72
2024/03/02 01:21:29;;;;;;;38.27;28.37;;;;;;;;;;5054409;28;20535;-72
2024/03/02 01:23:56;;;;;;;39.80;29.23;;;;;;;;;;5054354;28;20995;-72
2024/03/02 01:26:22;;;;;;;41.70;31.23;;;;;;;;;;5054188;28;20533;-72
2024/03/02 01:28:49;;;;;;;38.83;28.73;;;;;;;;;;5054576;28;20535;-72
2024/03/02 01:31:16;;;;;;;38.77;29.17;;;;;;;;;;5054332;28;20535;-72
2024/03/02 01:33:44;;;;;;;41.17;30.40;;;;;;;;;;5054161;28;20535;-72
2024/03/02 01:36:11;;;;;;;37.40;30.37;;;;;;;;;;5054112;28;20548;-72
2024/03/02 01:38:37;;;;;;;42.30;30.23;;;;;;;;;;5053813;28;20518;-72
2024/03/02 01:41:04;;;;;;;44.13;31.67;;;;;;;;;;5054084;28;20893;-72
2024/03/02 01:43:31;;;;;;;41.27;29.67;;;;;;;;;;5053776;28;20448;-72
2024/03/02 01:45:58;;;;;;;40.47;28.90;;;;;;;;;;5054037;28;20525;-72
2024/03/02 01:48:25;;;;;;;39.50;28.87;;;;;;;;;;5053887;28;20539;-72
2024/03/02 01:50:53;;;;;;;41.60;29.80;;;;;;;;;;5053867;28;20883;-72
2024/03/02 01:53:21;;;;;;;38.63;28.57;;;;;;;;;;5053758;28;20444;-72
2024/03/02 01:55:48;;;;;;;44.00;31.20;;;;;;;;;;5053554;28;20450;-72
2024/03/02 01:58:15;;;;;;;39.70;29.37;;;;;;;;;;5054060;28;20574;-72
2024/03/02 02:00:42;;;;;;;39.80;29.83;;;;;;;;;;5053682;28;20539;-72
2024/03/02 02:03:09;;;;;;;40.03;30.97;;;;;;;;;;5053742;28;20555;-72
2024/03/02 02:05:36;;;;;;;43.73;30.67;;;;;;;;;;5053608;28;20535;-72
2024/03/02 02:08:05;;;;;;;39.83;30.80;;;;;;;;;;5053463;28;20444;-73
2024/03/02 02:10:32;;;;;;;41.13;30.10;;;;;;;;;;5053376;28;20509;-72
2024/03/02 02:12:59;;;;;;;38.67;27.97;;;;;;;;;;5053553;28;20449;-72
2024/03/02 02:15:26;;;;;;;39.03;29.87;;;;;;;;;;5052757;28;20451;-72
2024/03/02 02:17:53;;;;;;;38.23;29.43;;;;;;;;;;5053225;28;20480;-72
2024/03/02 02:20:20;;;;;;;40.63;30.17;;;;;;;;;;5053300;28;20531;-73
2024/03/02 02:22:58;;;;;;;42.03;32.07;;;;;;;;;;5053214;28;20483;-72
2024/03/02 02:25:25;;;;;;;47.83;35.07;;;;;;;;;;5053409;28;20514;-73
2024/03/02 02:27:52;;;;;;;44.53;32.77;;;;;;;;;;5053294;28;20559;-73
2024/03/02 02:30:23;;;;;;;47.53;35.80;;;;;;;;;;5053040;28;20476;-73
2024/03/02 02:32:50;;;;;;;48.40;34.50;;;;;;;;;;5053156;28;20506;-73
2024/03/02 02:35:16;;;;;;;49.93;34.90;;;;;;;;;;5053039;28;20873;-72
2024/03/02 02:37:43;;;;;;;47.70;34.13;;;;;;;;;;5052810;28;20577;-72
2024/03/02 02:40:12;;;;;;;47.87;35.43;;;;;;;;;;5052910;28;20559;-73
2024/03/02 02:42:39;;;;;;;52.53;37.80;;;;;;;;;;5053056;28;20494;-72
2024/03/02 02:45:06;;;;;;;51.87;37.90;;;;;;;;;;5053058;28;20808;-72
2024/03/02 02:47:35;;;;;;;50.77;36.17;;;;;;;;;;5052923;28;20855;-72
2024/03/02 02:50:02;;;;;;;46.30;36.20;;;;;;;;;;5052776;28;20448;-72
2024/03/02 02:52:34;;;;;;;46.30;33.20;;;;;;;;;;5053044;28;20574;-72
2024/03/02 02:55:00;;;;;;;52.37;36.70;;;;;;;;;;5053065;28;20492;-72
2024/03/02 02:57:31;;;;;;;44.40;34.60;;;;;;;;;;5052779;28;20475;-72
2024/03/02 02:59:58;;;;;;;50.57;37.40;;;;;;;;;;5052857;28;20532;-72
2024/03/02 03:02:24;;;;;;;47.17;35.50;;;;;;;;;;5052744;28;20481;-72
2024/03/02 03:04:52;;;;;;;50.87;35.60;;;;;;;;;;5052638;28;20452;-72
2024/03/02 03:07:18;;;;;;;47.50;33.73;;;;;;;;;;5052877;28;20452;-72
2024/03/02 03:09:45;;;;;;;48.50;35.23;;;;;;;;;;5052734;28;20808;-72
2024/03/02 03:12:12;;;;;;;47.47;33.60;;;;;;;;;;5052707;28;20559;-73
2024/03/02 03:14:41;;;;;;;47.30;34.63;;;;;;;;;;5052696;28;20444;-72
2024/03/02 03:17:08;;;;;;;42.70;33.90;;;;;;;;;;5052510;28;20449;-73
2024/03/02 03:19:37;;;;;;;45.30;32.77;;;;;;;;;;5052727;28;20479;-72
2024/03/02 03:22:04;;;;;;;41.33;30.47;;;;;;;;;;5052475;28;20962;-72
2024/03/02 03:24:32;;;;;;;44.17;32.90;;;;;;;;;;5052976;28;20449;-73
2024/03/02 03:26:59;;;;;;;39.63;31.33;;;;;;;;;;5054789;28;20449;-72
2024/03/02 03:29:26;;;;;;;43.40;31.80;;;;;;;;;;5056571;28;20865;-73
2024/03/02 03:31:54;;;;;;;43.20;33.70;;;;;;;;;;5056364;28;20448;-72
2024/03/02 03:34:21;;;;;;;45.70;30.73;;;;;;;;;;5056537;28;20444;-72
2024/03/02 03:36:48;;;;;;;41.10;31.00;;;;;;;;;;5056406;28;20444;-73
2024/03/02 03:39:15;;;;;;;40.70;33.23;;;;;;;;;;5056093;28;20916;-73
2024/03/02 03:41:42;;;;;;;44.20;31.60;;;;;;;;;;5056270;28;20491;-72
2024/03/02 03:44:09;;;;;;;41.27;31.00;;;;;;;;;;5056076;28;20479;-72
2024/03/02 03:46:36;;;;;;;41.00;29.80;;;;;;;;;;5056324;28;20440;-72
2024/03/02 03:49:05;;;;;;;41.97;32.17;;;;;;;;;;5056294;28;21011;-72
2024/03/02 03:51:32;;;;;;;44.80;31.90;;;;;;;;;;5056154;28;20505;-72
2024/03/02 03:53:59;;;;;;;40.60;30.83;;;;;;;;;;5056177;28;20866;-73
2024/03/02 03:56:25;;;;;;;39.93;28.87;;;;;;;;;;5056040;28;20456;-73
2024/03/02 03:58:53;;;;;;;36.27;28.47;;;;;;;;;;5055837;28;20921;-72
2024/03/02 04:01:22;;;;;;;39.87;28.73;;;;;;;;;;5056071;28;20448;-73
2024/03/02 04:03:48;;;;;;;39.90;29.30;;;;;;;;;;5056039;28;20510;-72
2024/03/02 04:06:17;;;;;;;40.10;30.50;;;;;;;;;;5055933;28;20448;-72
2024/03/02 04:08:44;;;;;;;37.30;29.57;;;;;;;;;;5055817;28;20781;-73
2024/03/02 04:11:11;;;;;;;41.70;29.57;;;;;;;;;;5055758;28;20480;-73
2024/03/02 04:13:38;;;;;;;42.13;29.97;;;;;;;;;;5055533;28;20547;-73
2024/03/02 04:16:05;;;;;;;38.40;29.60;;;;;;;;;;5055744;28;20446;-73
2024/03/02 04:18:32;;;;;;;37.87;29.47;;;;;;;;;;5055684;28;20488;-73
2024/03/02 04:21:00;;;;;;;37.30;28.30;;;;;;;;;;5055574;28;20546;-73
2024/03/02 04:23:28;;;;;;;39.90;29.50;;;;;;;;;;5055561;28;20470;-73
2024/03/02 04:25:55;;;;;;;34.60;29.40;;;;;;;;;;5055455;28;20535;-73
2024/03/02 04:28:22;;;;;;;36.30;29.03;;;;;;;;;;5055348;28;20451;-73
2024/03/02 04:30:49;;;;;;;38.73;30.20;;;;;;;;;;5055446;28;20531;-72
2024/03/02 04:33:16;;;;;;;37.67;29.23;;;;;;;;;;5055333;28;20535;-72
2024/03/02 04:35:43;;;;;;;36.60;28.07;;;;;;;;;;5055241;28;20451;-73
2024/03/02 04:38:10;;;;;;;36.53;29.30;;;;;;;;;;5054276;28;20472;-73
2024/03/02 04:40:38;;;;;;;39.10;29.53;;;;;;;;;;5054903;28;20513;-73
2024/03/02 04:43:05;;;;;;;40.37;29.20;;;;;;;;;;5055299;28;20551;-72
2024/03/02 04:45:32;;;;;;;34.80;27.77;;;;;;;;;;5055141;28;20535;-73
2024/03/02 04:47:59;;;;;;;33.60;26.70;;;;;;;;;;5055114;28;20531;-73
2024/03/02 04:50:25;;;;;;;33.80;27.87;;;;;;;;;;5054934;28;20472;-73
2024/03/02 04:52:53;;;;;;;38.63;28.23;;;;;;;;;;5054843;28;20445;-73
2024/03/02 04:55:52;;;;;;;35.97;26.60;;;;;;;;;;5055059;28;20445;-73
2024/03/02 04:58:18;;;;;;;34.03;25.80;;;;;;;;;;5054647;28;20475;-73
2024/03/02 05:00:46;;;;;;;43.10;31.30;;;;;;;;;;5054803;28;20539;-73
2024/03/02 05:03:13;;;;;;;34.50;29.07;;;;;;;;;;5054684;28;20495;-73
2024/03/02 05:05:40;;;;;;;40.70;30.50;;;;;;;;;;5054616;28;20506;-73
2024/03/02 05:08:07;;;;;;;33.67;26.57;;;;;;;;;;5054839;28;20539;-73
2024/03/02 05:10:36;;;;;;;36.93;27.43;;;;;;;;;;5054655;28;20551;-73
2024/03/02 05:13:03;;;;;;;35.50;28.67;;;;;;;;;;5054571;28;20452;-73
2024/03/02 05:15:31;;;;;;;39.53;28.90;;;;;;;;;;5054607;28;20885;-73
2024/03/02 05:17:59;;;;;;;32.70;27.13;;;;;;;;;;5054341;28;20441;-73
2024/03/02 05:20:26;;;;;;;38.57;27.80;;;;;;;;;;5054594;28;20470;-73
2024/03/02 05:22:53;;;;;;;35.87;26.80;;;;;;;;;;5054204;28;20990;-73
2024/03/02 05:25:20;;;;;;;30.20;25.23;;;;;;;;;;5054391;28;20451;-73
2024/03/02 05:27:47;;;;;;;35.00;26.60;;;;;;;;;;5054249;28;20444;-73
2024/03/02 05:30:14;;;;;;;33.87;26.50;;;;;;;;;;5054107;28;20936;-72
2024/03/02 05:32:42;;;;;;;32.13;26.30;;;;;;;;;;5054069;28;20448;-72
2024/03/02 05:35:11;;;;;;;32.03;24.73;;;;;;;;;;5054293;28;20527;-73
2024/03/02 05:37:39;;;;;;;32.10;24.33;;;;;;;;;;5054220;28;20488;-73
2024/03/02 05:40:06;;;;;;;32.93;25.83;;;;;;;;;;5053780;28;21025;-73
2024/03/02 05:42:33;;;;;;;34.57;26.00;;;;;;;;;;5054051;28;20536;-73
2024/03/02 05:45:01;;;;;;;28.00;24.80;;;;;;;;;;5054124;28;20859;-73
2024/03/02 05:47:28;;;;;;;34.30;27.00;;;;;;;;;;5054143;28;20982;-73
2024/03/02 05:49:56;;;;;;;31.90;24.50;;;;;;;;;;5053989;28;20827;-73
2024/03/02 05:52:23;;;;;;;31.17;26.13;;;;;;;;;;5053856;28;20449;-73
2024/03/02 05:54:50;;;;;;;34.40;26.77;;;;;;;;;;5053622;28;20540;-73
2024/03/02 05:57:31;;;;;;;32.93;25.23;;;;;;;;;;5053723;28;20455;-73
2024/03/02 05:59:58;;;;;;;33.40;26.30;;;;;;;;;;5053845;28;20483;-72
2024/03/02 06:02:25;;;;;;;35.93;28.07;;;;;;;;;;5053754;28;20452;-72
2024/03/02 06:04:52;;;;;;;33.67;28.50;;;;;;;;;;5053695;28;20467;-72
2024/03/02 06:07:21;;;;;;;38.87;30.23;;;;;;;;;;5053515;28;20985;-73
2024/03/02 06:09:50;;;;;;;33.23;26.57;;;;;;;;;;5053470;28;20535;-73
2024/03/02 06:12:17;;;;;;;36.07;28.60;;;;;;;;;;5053354;28;20448;-72
2024/03/02 06:14:44;;;;;;;29.87;25.23;;;;;;;;;;5053624;28;20450;-72
2024/03/02 06:17:11;;;;;;;34.00;27.17;;;;;;;;;;5053510;28;20483;-72
2024/03/02 06:19:38;;;;;;;35.00;26.07;;;;;;;;;;5053277;28;20492;-73
2024/03/02 06:22:05;;;;;;;31.87;26.97;;;;;;;;;;5053192;28;20451;-72
2024/03/02 06:24:34;;;;;;;33.40;27.03;;;;;;;;;;5053106;28;20444;-72
2024/03/02 06:27:01;;;;;;;31.83;26.00;;;;;;;;;;5053362;28;20436;-72
2024/03/02 06:29:27;;;;;;;35.40;28.23;;;;;;;;;;5053221;28;20877;-72
2024/03/02 06:31:54;;;;;;;35.53;28.10;;;;;;;;;;5053128;28;20527;-73
2024/03/02 06:34:21;;;;;;;38.20;29.50;;;;;;;;;;5053132;28;20440;-73
2024/03/02 06:36:48;;;;;;;36.10;28.87;;;;;;;;;;5053048;28;20535;-72
2024/03/02 06:39:15;;;;;;;39.30;27.97;;;;;;;;;;5052632;28;20492;-72
2024/03/02 06:41:43;;;;;;;41.30;30.07;;;;;;;;;;5053074;28;20506;-72
2024/03/02 06:44:10;;;;;;;36.23;27.97;;;;;;;;;;5053084;28;20475;-72
2024/03/02 06:46:37;;;;;;;38.30;29.90;;;;;;;;;;5053044;28;20531;-72
2024/03/02 06:49:04;;;;;;;36.13;26.80;;;;;;;;;;5052792;28;20535;-72
2024/03/02 06:51:31;;;;;;;43.37;29.43;;;;;;;;;;5052873;28;20444;-72
2024/03/02 06:53:58;;;;;;;44.40;31.80;;;;;;;;;;5052763;28;20531;-72
2024/03/02 06:56:25;;;;;;;37.27;29.83;;;;;;;;;;5052911;28;20539;-72
2024/03/02 06:58:53;;;;;;;38.50;30.27;;;;;;;;;;5052847;28;20555;-72
2024/03/02 07:01:20;;;;;;;41.37;30.53;;;;;;;;;;5055469;28;20483;-72
2024/03/02 07:03:47;;;;;;;46.20;33.57;;;;;;;;;;5059404;28;20463;-72
2024/03/02 07:06:14;;;;;;;39.17;28.80;;;;;;;;;;5059280;28;20449;-72
2024/03/02 07:08:41;;;;;;;37.33;29.97;;;;;;;;;;5059264;28;20440;-72
2024/03/02 07:11:08;;;;;;;40.03;31.20;;;;;;;;;;5059304;28;20980;-72
2024/03/02 07:13:36;;;;;;;40.67;32.07;;;;;;;;;;5059196;28;20954;-72
2024/03/02 07:16:27;;;;;;;45.63;31.50;;;;;;;;;;5059323;28;20902;-72
2024/03/02 07:18:55;;;;;;;38.10;29.40;;;;;;;;;;5059054;28;20504;-72
2024/03/02 07:21:22;;;;;;;40.33;31.30;;;;;;;;;;5059446;28;20877;-72
2024/03/02 07:23:49;;;;;;;39.33;30.30;;;;;;;;;;5059313;28;20829;-72
2024/03/02 07:26:18;;;;;;;44.20;31.80;;;;;;;;;;5059299;28;20819;-72
2024/03/02 07:28:45;;;;;;;42.27;31.20;;;;;;;;;;5059150;28;20448;-72
2024/03/02 07:31:13;;;;;;;42.30;30.10;;;;;;;;;;5059099;28;20530;-72
2024/03/02 07:33:40;;;;;;;36.60;29.93;;;;;;;;;;5059246;28;20448;-72
2024/03/02 07:36:07;;;;;;;42.17;30.67;;;;;;;;;;5059082;28;21001;-72
2024/03/02 07:38:35;;;;;;;42.43;32.43;;;;;;;;;;5059141;28;20448;-72
2024/03/02 07:41:02;;;;;;;44.10;31.63;;;;;;;;;;5059209;28;20455;-72
2024/03/02 07:43:29;;;;;;;46.40;34.70;;;;;;;;;;5059137;28;20490;-72
2024/03/02 07:45:56;;;;;;;50.73;33.20;;;;;;;;;;5058989;28;20531;-72
2024/03/02 07:48:25;;;;;;;44.57;33.57;;;;;;;;;;5059201;28;20459;-72
2024/03/02 07:50:53;;;;;;;42.00;31.60;;;;;;;;;;5058878;28;20939;-72
2024/03/02 07:53:20;;;;;;;46.23;34.10;;;;;;;;;;5059081;28;20547;-72
2024/03/02 07:55:47;;;;;;;42.67;32.33;;;;;;;;;;5058878;28;20998;-72
2024/03/02 07:58:14;;;;;;;46.47;33.90;;;;;;;;;;5058917;28;20444;-72
2024/03/02 08:00:41;;;;;;;49.07;34.90;;;;;;;;;;5058785;28;20512;-72
2024/03/02 08:03:10;;;;;;;52.67;36.43;;;;;;;;;;5058861;28;20543;-72
2024/03/02 08:05:39;;;;;;;51.43;34.13;;;;;;;;;;5059169;28;20444;-72
2024/03/02 08:08:06;;;;;;;44.57;32.97;;;;;;;;;;5058883;28;21034;-72
2024/03/02 08:10:33;;;;;;;47.43;34.03;;;;;;;;;;5058740;28;20483;-72
2024/03/02 08:13:00;;;;;;;42.77;31.90;;;;;;;;;;5055867;28;20448;-72
2024/03/02 08:15:27;;;;;;;46.30;32.83;;;;;;;;;;5055714;28;20880;-72
2024/03/02 08:17:54;;;;;;;45.97;32.60;;;;;;;;;;5055607;28;20482;-72
2024/03/02 08:20:21;;;;;;;45.50;34.07;;;;;;;;;;5055532;28;20570;-72
2024/03/02 08:22:49;;;;;;;49.93;31.00;;;;;;;;;;5055556;28;20535;-72
2024/03/02 08:25:16;;;;;;;42.27;32.30;;;;;;;;;;5055447;28;20441;-72
2024/03/02 08:27:44;;;;;;;42.97;32.70;;;;;;;;;;5055327;28;20456;-72
2024/03/02 08:30:11;;;;;;;41.40;31.57;;;;;;;;;;5055465;28;20539;-72
2024/03/02 08:32:38;;;;;;;44.30;31.10;;;;;;;;;;5055137;28;21015;-72
2024/03/02 08:35:06;;;;;;;45.30;32.33;;;;;;;;;;5055288;28;20480;-72
2024/03/02 08:37:33;;;;;;;39.83;30.60;;;;;;;;;;5055249;28;20531;-72
2024/03/02 08:40:02;;;;;;;43.83;31.93;;;;;;;;;;5054890;28;20496;-72
2024/03/02 08:42:29;;;;;;;41.50;30.97;;;;;;;;;;5055311;28;20452;-72
2024/03/02 08:44:55;;;;;;;44.80;31.00;;;;;;;;;;5055202;28;20452;-72
2024/03/02 08:47:22;;;;;;;42.10;29.80;;;;;;;;;;5055166;28;20876;-72
2024/03/02 08:49:49;;;;;;;44.20;30.93;;;;;;;;;;5054885;28;20517;-72
2024/03/02 08:52:16;;;;;;;40.57;29.17;;;;;;;;;;5054922;28;20531;-73
2024/03/02 08:54:43;;;;;;;42.80;30.20;;;;;;;;;;5054776;28;20445;-72
2024/03/02 08:57:11;;;;;;;41.20;29.53;;;;;;;;;;5054983;28;20450;-72
2024/03/02 08:59:38;;;;;;;36.63;28.43;;;;;;;;;;5054791;28;20835;-72
2024/03/02 09:02:06;;;;;;;31.90;25.60;;;;;;;;;;5054773;28;20535;-72
2024/03/02 09:04:33;;;;;;;38.23;28.63;;;;;;;;;;5054681;28;20539;-72
2024/03/02 09:07:00;;;;;;;34.10;27.40;;;;;;;;;;5054563;28;20538;-72
2024/03/02 09:09:27;;;;;;;40.13;28.97;;;;;;;;;;5054456;28;20540;-72
2024/03/02 09:11:54;;;;;;;43.20;29.30;;;;;;;;;;5054753;28;21019;-72
2024/03/02 09:14:23;;;;;;;38.17;28.00;;;;;;;;;;5054656;28;20450;-72
2024/03/02 09:16:50;;;;;;;43.50;31.13;;;;;;;;;;5054600;28;20965;-72
2024/03/02 09:19:17;;;;;;;39.87;29.77;;;;;;;;;;5054322;28;20451;-72
2024/03/02 09:21:44;;;;;;;34.30;26.60;;;;;;;;;;5054409;28;20956;-72
2024/03/02 09:24:12;;;;;;;40.33;29.13;;;;;;;;;;5054168;28;20459;-72
2024/03/02 09:26:39;;;;;;;40.13;28.33;;;;;;;;;;5054361;28;20448;-72
2024/03/02 09:29:06;;;;;;;35.00;27.23;;;;;;;;;;5054455;28;20531;-72
2024/03/02 09:31:34;;;;;;;35.67;27.50;;;;;;;;;;5054080;28;20448;-72
2024/03/02 09:34:01;;;;;;;36.50;27.40;;;;;;;;;;5054159;28;20535;-72
2024/03/02 09:36:28;;;;;;;36.80;28.30;;;;;;;;;;5053984;28;20610;-72
2024/03/02 09:38:55;;;;;;;37.83;28.10;;;;;;;;;;5053985;28;20472;-72
2024/03/02 09:41:22;;;;;;;36.47;27.30;;;;;;;;;;5054086;28;20490;-72
2024/03/02 09:43:49;;;;;;;35.47;26.17;;;;;;;;;;5054055;28;20531;-72
2024/03/02 09:46:16;;;;;;;36.50;25.40;;;;;;;;;;5053831;28;20487;-72
2024/03/02 09:48:45;;;;;;;35.27;26.50;;;;;;;;;;5053848;28;20613;-72
2024/03/02 09:51:12;;;;;;;31.33;23.90;;;;;;;;;;5053783;28;20892;-72
2024/03/02 09:53:39;;;;;;;30.20;23.87;;;;;;;;;;5053862;28;20448;-72
2024/03/02 09:56:07;;;;;;;32.00;24.10;;;;;;;;;;5053650;28;21001;-72
2024/03/02 09:58:34;;;;;;;31.50;22.70;;;;;;;;;;5053727;28;20444;-72
2024/03/02 10:01:01;;;;;;;27.43;22.17;;;;;;;;;;5053487;28;20511;-72
2024/03/02 10:03:32;;;;;;;29.77;22.83;;;;;;;;;;5053586;28;20803;-72
2024/03/02 10:06:19;;;;;;;28.63;22.57;;;;;;;;;;5053596;28;20939;-72
2024/03/02 10:08:48;;;;;;;29.50;22.60;;;;;;;;;;5053222;28;20455;-72
2024/03/02 10:11:26;;;;;;;25.27;20.70;;;;;;;;;;5053472;28;20448;-73
2024/03/02 10:14:02;;;;;;;26.20;20.00;;;;;;;;;;5053323;28;20966;-73
2024/03/02 10:16:29;;;;;;;28.33;20.70;;;;;;;;;;5053430;28;20448;-73
2024/03/02 10:18:56;;;;;;;31.63;22.03;;;;;;;;;;5053400;28;20906;-72
2024/03/02 10:21:25;;;;;;;29.70;20.53;;;;;;;;;;5053114;28;20526;-72
2024/03/02 10:23:52;;;;;;;25.67;20.20;;;;;;;;;;5053256;28;20851;-73
2024/03/02 10:26:19;;;;;;;28.93;21.27;;;;;;;;;;5053060;28;20448;-72
2024/03/02 10:28:47;;;;;;;28.97;20.77;;;;;;;;;;5053330;28;20444;-73
2024/03/02 10:31:14;;;;;;;28.57;20.97;;;;;;;;;;5053185;28;20448;-73
2024/03/02 10:33:41;;;;;;;25.67;20.50;;;;;;;;;;5053110;28;20448;-73
2024/03/02 10:36:10;;;;;;;28.10;19.60;;;;;;;;;;5052310;28;21012;-72
2024/03/02 10:38:40;;;;;;;24.77;19.93;;;;;;;;;;5052806;28;20877;-73
2024/03/02 10:41:09;;;;;;;27.93;20.30;;;;;;;;;;5052851;28;20507;-72
2024/03/02 10:43:36;;;;;;;28.73;21.63;;;;;;;;;;5053020;28;20441;-73
2024/03/02 10:46:03;;;;;;;26.27;19.40;;;;;;;;;;5053081;28;20441;-72
2024/03/02 10:48:30;;;;;;;23.53;18.97;;;;;;;;;;5053001;28;20513;-72
2024/03/02 10:51:01;;;;;;;20.67;16.10;;;;;;;;;;5052857;28;20452;-72
2024/03/02 10:53:28;;;;;;;23.97;17.47;;;;;;;;;;5052741;28;20455;-72
2024/03/02 10:56:02;;;;;;;25.33;18.67;;;;;;;;;;5052912;28;20448;-72
2024/03/02 10:58:31;;;;;;;24.03;19.37;;;;;;;;;;5052748;28;20962;-73
2024/03/02 11:01:01;;;;;;;22.63;18.43;;;;;;;;;;5052713;28;20484;-72
2024/03/02 11:03:28;;;;;;;24.63;19.20;;;;;;;;;;5052802;28;20479;-73
2024/03/02 11:05:55;;;;;;;23.00;18.27;;;;;;;;;;5052595;28;20777;-73
2024/03/02 11:08:26;;;;;;;24.27;17.27;;;;;;;;;;5052788;28;20476;-73
2024/03/02 11:10:55;;;;;;;20.87;16.97;;;;;;;;;;5052801;28;20449;-72
2024/03/02 11:13:26;;;;;;;23.47;16.97;;;;;;;;;;5052706;28;20456;-72
2024/03/02 11:15:54;;;;;;;21.43;17.47;;;;;;;;;;5052571;28;20532;-72
2024/03/02 11:18:21;;;;;;;21.43;16.53;;;;;;;;;;5052467;28;20447;-73
2024/03/02 11:20:48;;;;;;;20.53;17.03;;;;;;;;;;5052669;28;20566;-73
2024/03/02 11:23:16;;;;;;;20.20;16.30;;;;;;;;;;5052582;28;20883;-73
2024/03/02 11:25:43;;;;;;;23.73;16.77;;;;;;;;;;5052604;28;20535;-73
2024/03/02 11:28:10;;;;;;;17.63;14.07;;;;;;;;;;5052410;28;20539;-73
2024/03/02 11:30:54;;;;;;;23.60;16.03;;;;;;;;;;5052396;28;20534;-73
2024/03/02 11:33:31;;;;;;;20.57;14.50;;;;;;;;;;5052608;28;20454;-73
2024/03/02 11:35:59;;;;;;;23.63;15.00;;;;;;;;;;5052502;28;20480;-73
2024/03/02 11:38:32;;;;;;;19.63;14.87;;;;;;;;;;5052227;28;20448;-73
2024/03/02 11:41:00;;;;;;;20.37;14.50;;;;;;;;;;5052355;28;20488;-73
2024/03/02 11:43:29;;;;;;;17.67;13.80;;;;;;;;;;5052219;28;20891;-73
2024/03/02 11:46:00;;;;;;;15.83;13.00;;;;;;;;;;5052524;28;20879;-72
2024/03/02 11:48:28;;;;;;;18.10;12.27;;;;;;;;;;5055263;28;20506;-73
2024/03/02 11:50:55;;;;;;;17.80;13.47;;;;;;;;;;5056019;28;21274;-73
2024/03/02 11:53:22;;;;;;;17.83;13.30;;;;;;;;;;5056015;28;20531;-73
2024/03/02 11:55:49;;;;;;;15.73;12.60;;;;;;;;;;5055876;28;20519;-72
2024/03/02 11:58:17;;;;;;;16.93;12.13;;;;;;;;;;5056155;28;20851;-72
2024/03/02 12:00:44;;;;;;;13.47;11.20;;;;;;;;;;5055952;28;20514;-73
2024/03/02 12:03:14;;;;;;;14.33;11.63;;;;;;;;;;5056030;28;20452;-73
2024/03/02 12:05:41;;;;;;;16.37;11.20;;;;;;;;;;5055888;28;20540;-73
2024/03/02 12:08:08;;;;;;;15.70;11.90;;;;;;;;;;5055678;28;20534;-72
2024/03/02 12:10:36;;;;;;;14.27;11.47;;;;;;;;;;5055536;28;20448;-72
2024/03/02 12:13:03;;;;;;;14.07;10.53;;;;;;;;;;5055811;28;20444;-72
2024/03/02 12:15:31;;;;;;;14.67;12.30;;;;;;;;;;5055732;28;20535;-73
2024/03/02 12:17:58;;;;;;;16.43;12.17;;;;;;;;;;5055508;28;20948;-73
2024/03/02 12:20:27;;;;;;;13.60;12.17;;;;;;;;;;5055485;28;20539;-73
2024/03/02 12:22:54;;;;;;;13.87;11.07;;;;;;;;;;5055449;28;20479;-72
2024/03/02 12:25:22;;;;;;;12.00;10.80;;;;;;;;;;5055458;28;20440;-73
2024/03/02 12:27:50;;;;;;;16.10;12.20;;;;;;;;;;5055519;28;20440;-73
2024/03/02 12:30:18;;;;;;;12.97;10.43;;;;;;;;;;5055342;28;20444;-73
2024/03/02 12:32:45;;;;;;;14.97;12.40;;;;;;;;;;5055338;28;20534;-73
2024/03/02 12:35:14;;;;;;;14.80;11.07;;;;;;;;;;5055302;28;20884;-73
2024/03/02 12:37:46;;;;;;;14.50;11.70;;;;;;;;;;5055075;28;20820;-73
2024/03/02 12:40:13;;;;;;;14.90;11.50;;;;;;;;;;5055130;28;20477;-73
2024/03/02 12:42:41;;;;;;;15.40;11.90;;;;;;;;;;5055170;28;20539;-72
2024/03/02 12:45:08;;;;;;;12.83;11.20;;;;;;;;;;5055042;28;20539;-73
2024/03/02 12:47:35;;;;;;;14.17;10.70;;;;;;;;;;5054946;28;20444;-73
2024/03/02 12:50:03;;;;;;;11.97;9.40;;;;;;;;;;5054823;28;20532;-73
2024/03/02 12:52:32;;;;;;;12.13;9.20;;;;;;;;;;5054917;28;20444;-73
2024/03/02 12:55:03;;;;;;;11.77;8.97;;;;;;;;;;5054920;28;20452;-73
2024/03/02 12:57:30;;;;;;;11.20;8.97;;;;;;;;;;5054757;28;20498;-73
2024/03/02 12:59:59;;;;;;;10.10;8.60;;;;;;;;;;5054094;28;20446;-73
2024/03/02 13:02:29;;;;;;;11.40;9.30;;;;;;;;;;5054588;28;20490;-73
2024/03/02 13:04:56;;;;;;;13.63;8.50;;;;;;;;;;5054902;28;20459;-73
2024/03/02 13:07:23;;;;;;;13.63;12.10;;;;;;;;;;5054742;28;20815;-73
2024/03/02 13:09:51;;;;;;;11.27;8.87;;;;;;;;;;5054596;28;20875;-72
2024/03/02 13:12:20;;;;;;;9.47;8.47;;;;;;;;;;5054464;28;20454;-73
2024/03/02 13:14:49;;;;;;;9.00;7.93;;;;;;;;;;5054487;28;20540;-73
2024/03/02 13:17:16;;;;;;;12.67;10.03;;;;;;;;;;5054414;28;20573;-73
2024/03/02 13:19:45;;;;;;;9.57;8.57;;;;;;;;;;5054320;28;20477;-72
2024/03/02 13:22:12;;;;;;;10.47;8.53;;;;;;;;;;5054422;28;21083;-73
2024/03/02 13:24:38;;;;;;;10.50;9.17;;;;;;;;;;5054429;28;20544;-73
2024/03/02 13:27:05;;;;;;;11.27;8.90;;;;;;;;;;5054362;28;20500;-73
2024/03/02 13:29:35;;;;;;;10.30;8.13;;;;;;;;;;5054159;28;20899;-73
2024/03/02 13:32:02;;;;;;;14.70;9.50;;;;;;;;;;5054120;28;20473;-73
2024/03/02 13:34:29;;;;;;;10.83;8.70;;;;;;;;;;5054289;28;20541;-73
2024/03/02 13:36:56;;;;;;;9.00;7.60;;;;;;;;;;5054149;28;20527;-73
2024/03/02 13:39:24;;;;;;;8.90;8.00;;;;;;;;;;5053754;28;21006;-73
2024/03/02 13:41:57;;;;;;;12.07;8.83;;;;;;;;;;5054035;28;20891;-73
2024/03/02 13:44:24;;;;;;;10.90;8.10;;;;;;;;;;5053963;28;20812;-73
2024/03/02 13:46:52;;;;;;;8.43;7.57;;;;;;;;;;5054088;28;20449;-73
2024/03/02 13:49:19;;;;;;;13.40;8.90;;;;;;;;;;5053943;28;20535;-73
2024/03/02 13:51:46;;;;;;;9.10;8.13;;;;;;;;;;5053843;28;20527;-73
2024/03/02 13:54:13;;;;;;;9.13;8.20;;;;;;;;;;5053743;28;20936;-73
2024/03/02 13:56:41;;;;;;;9.27;8.10;;;;;;;;;;5053601;28;20452;-73
2024/03/02 13:59:08;;;;;;;10.53;9.20;;;;;;;;;;5053624;28;20451;-73
2024/03/02 14:01:35;;;;;;;8.77;7.87;;;;;;;;;;5053640;28;20899;-73
2024/03/02 14:04:03;;;;;;;9.37;8.00;;;;;;;;;;5053482;28;20557;-73
2024/03/02 14:06:30;;;;;;;10.33;8.60;;;;;;;;;;5053343;28;20445;-73
2024/03/02 14:08:58;;;;;;;9.73;7.57;;;;;;;;;;5053379;28;20451;-73
2024/03/02 14:11:25;;;;;;;10.03;8.50;;;;;;;;;;5052350;28;20548;-73
2024/03/02 14:13:54;;;;;;;9.53;8.53;;;;;;;;;;5053418;28;20534;-73
2024/03/02 14:16:21;;;;;;;15.53;8.67;;;;;;;;;;5053366;28;20446;-73
2024/03/02 14:18:48;;;;;;;8.80;7.23;;;;;;;;;;5053426;28;20448;-73
2024/03/02 14:21:16;;;;;;;9.73;8.80;;;;;;;;;;5053297;28;20473;-73